Startpagina
METAR-TAF:

METAR-TAF

Vliegvelden :

Aéroport de Paris-Beauvais-Tillé

Beauvais, Frankrijk

breedte: 49-28N, lengte: 002-07E, hoogte: 109 m

Actueel weer

Dit bericht is 35 minuten geleden gemaakt, om 04:00 UTC
Wind 3 kt uit het noordwesten
Temperatuur 13°C
Vochtigheid 88%
Druk 1018 hPa
Zicht 10 km of meer
geen wolken onder 1500 m en geen cumulonimbus

METAR: LFOB 260400Z AUTO 31003KT CAVOK 13/11 Q1018 NOSIG

Tijdstip: 06:35 (04:35 UTC)

Verwachting

Dit bericht is 5 uur en het 35 minuten geleden gemaakt, om 23:00 UTC
Verwachting geldig van 26 om 00 UTC tot 26 om 24 UTC
Wind 3 kt uit variabele richting
Zicht 10 km of meer
geen wolken onder 1500 m en geen cumulonimbus

TAF: LFOB 252300Z 2600/2624 VRB03KT CAVOK

Waarnemingen en weersverwachtingen van meer dan 4000 vliegvelden (METAR en TAF).

De beschikbare stations zijn de gele en rode punten op de kaart.

Ga met uw muis naar het station om de naam te zien.

Klik dan om waarnemingen en weersverwachtingen te zien.

kaart wijzigen: klik op de groene knoppen met een zwart kruis om in te zoomen, op de groene knop met een streepje om uit te zoomen of op de groene pijlen voor aangrenzende kaarten.


METAR-TAF: